Time;durP1;ratioP1;P1;durP2;ratioP2;P2;SDS_P1;SDS_P2;PMS_P1;PMS_P2;Temp;Humidity;BMP_temperature;BMP_pressure;BME280_temperature;BME280_humidity;BME280_pressure;Samples;Min_cycle;Max_cycle;Signal;HPM_P1;HPM_P2
2020/12/31 00:00:48;;;;;;;189.63;64.07;;;;;;;2.52;100.00;99313.16;1795350;78;21195;-71
2020/12/31 00:03:14;;;;;;;161.17;65.30;;;;;;;2.47;100.00;99314.84;1800184;78;23562;-71
2020/12/31 00:05:39;;;;;;;152.37;66.60;;;;;;;2.49;100.00;99308.20;1801281;78;21696;-71
2020/12/31 00:08:05;;;;;;;174.27;70.87;;;;;;;2.58;100.00;99315.72;1799261;78;26677;-72
2020/12/31 00:10:31;;;;;;;175.42;74.58;;;;;;;2.61;100.00;99318.07;1797607;78;27101;-73
2020/12/31 00:12:58;;;;;;;158.23;70.90;;;;;;;2.61;100.00;99317.62;1798503;78;21371;-70
2020/12/31 00:15:24;;;;;;;171.10;68.85;;;;;;;2.66;100.00;99319.84;1798250;78;21452;-72
2020/12/31 00:17:50;;;;;;;158.95;70.08;;;;;;;2.69;100.00;99326.93;1794801;78;21185;-72
2020/12/31 00:20:16;;;;;;;166.20;69.60;;;;;;;2.73;100.00;99341.83;1797822;78;21235;-72
2020/12/31 00:22:42;;;;;;;184.07;74.27;;;;;;;2.78;100.00;99344.91;1796743;78;24143;-72
2020/12/31 00:25:11;;;;;;;161.37;71.17;;;;;;;2.75;100.00;99342.55;1797227;78;21266;-70
2020/12/31 00:27:36;;;;;;;156.35;70.42;;;;;;;2.84;100.00;99340.95;1798673;78;21619;-69
2020/12/31 00:30:08;;;;;;;161.13;68.70;;;;;;;3.02;100.00;99328.18;1799251;78;21983;-69
2020/12/31 00:32:34;;;;;;;150.75;69.30;;;;;;;3.06;100.00;99333.47;1797364;78;21140;-69
2020/12/31 00:35:00;;;;;;;151.73;69.50;;;;;;;3.16;100.00;99333.06;1798448;78;26221;-69
2020/12/31 00:37:33;;;;;;;155.18;63.35;;;;;;;3.24;100.00;99334.54;1796428;78;21756;-68
2020/12/31 00:39:59;;;;;;;162.43;64.95;;;;;;;3.17;100.00;99333.88;1797709;78;21625;-69
2020/12/31 00:42:25;;;;;;;139.37;60.08;;;;;;;3.07;100.00;99336.44;1795109;78;21466;-69
2020/12/31 00:44:51;;;;;;;186.77;58.03;;;;;;;3.16;100.00;99337.46;1796354;78;25835;-69
2020/12/31 00:47:16;;;;;;;126.53;61.68;;;;;;;3.05;100.00;99335.75;1800971;78;25167;-70
2020/12/31 00:49:42;;;;;;;131.63;59.50;;;;;;;2.98;100.00;99333.30;1798804;78;21381;-70
2020/12/31 00:52:08;;;;;;;128.97;58.37;;;;;;;2.93;100.00;99341.50;1795102;78;23051;-71
2020/12/31 00:54:34;;;;;;;126.93;52.73;;;;;;;2.84;100.00;99352.23;1792496;78;20946;-74
2020/12/31 00:56:59;;;;;;;119.93;52.13;;;;;;;2.81;100.00;99349.88;1793848;78;28317;-71
2020/12/31 00:59:25;;;;;;;121.03;53.27;;;;;;;2.71;100.00;99350.75;1798851;78;25258;-72
2020/12/31 01:01:51;;;;;;;124.83;53.20;;;;;;;2.62;100.00;99348.41;1795093;78;21338;-70
2020/12/31 01:04:16;;;;;;;114.33;50.73;;;;;;;2.72;100.00;99346.72;1792417;78;22042;-71
2020/12/31 01:06:42;;;;;;;99.47;47.87;;;;;;;2.77;100.00;99341.94;1795409;78;21061;-71
2020/12/31 01:09:08;;;;;;;110.37;49.53;;;;;;;2.75;100.00;99346.92;1801938;78;28257;-70
2020/12/31 01:11:37;;;;;;;127.47;53.63;;;;;;;2.87;100.00;99344.16;1796358;78;26204;-70
2020/12/31 01:14:04;;;;;;;108.55;49.18;;;;;;;2.91;100.00;99346.02;1803574;78;21601;-72
2020/12/31 01:16:30;;;;;;;117.33;50.20;;;;;;;2.97;100.00;99346.00;1803119;78;21199;-69
2020/12/31 01:18:55;;;;;;;111.87;51.33;;;;;;;2.93;100.00;99353.72;1800527;78;20953;-69
2020/12/31 01:21:21;;;;;;;121.67;53.40;;;;;;;3.05;100.00;99343.09;1797251;78;25773;-71
2020/12/31 01:23:47;;;;;;;123.00;54.30;;;;;;;2.92;100.00;99345.53;1798020;78;21132;-69
2020/12/31 01:26:13;;;;;;;127.63;54.00;;;;;;;2.94;100.00;99354.08;1795572;78;21427;-71
2020/12/31 01:28:39;;;;;;;116.77;50.57;;;;;;;2.91;100.00;99358.24;1742022;78;25098;-72
2020/12/31 01:31:08;;;;;;;133.15;51.65;;;;;;;2.77;100.00;99363.28;1797772;78;21172;-73
2020/12/31 01:33:39;;;;;;;112.42;51.77;;;;;;;2.82;100.00;99356.72;1798627;78;21507;-71
2020/12/31 01:36:07;;;;;;;131.22;51.37;;;;;;;2.83;100.00;99353.17;1790741;78;21120;-72
2020/12/31 01:38:33;;;;;;;123.85;54.10;;;;;;;2.79;100.00;99362.19;1798860;78;21594;-72
2020/12/31 01:40:59;;;;;;;170.00;52.33;;;;;;;2.79;100.00;99359.58;1796915;78;22089;-72
2020/12/31 01:43:24;;;;;;;117.27;52.70;;;;;;;2.76;100.00;99353.31;1801490;78;21879;-71
2020/12/31 01:45:50;;;;;;;117.17;49.73;;;;;;;2.76;100.00;99349.41;1795919;78;27752;-71
2020/12/31 01:48:16;;;;;;;128.60;53.13;;;;;;;2.88;100.00;99352.30;1799264;78;27153;-70
2020/12/31 01:50:42;;;;;;;120.00;49.33;;;;;;;2.96;100.00;99352.16;1796302;78;21372;-70
2020/12/31 01:53:07;;;;;;;115.97;51.03;;;;;;;2.83;100.00;99353.17;1741196;81;22160;-69
2020/12/31 01:55:33;;;;;;;122.93;51.53;;;;;;;2.98;100.00;99352.85;1734152;81;21033;-71
2020/12/31 01:57:59;;;;;;;109.17;46.58;;;;;;;3.04;100.00;99347.94;1738083;81;27513;-71
2020/12/31 02:00:25;;;;;;;111.62;47.93;;;;;;;3.06;100.00;99343.91;1738114;81;26721;-70
2020/12/31 02:02:51;;;;;;;131.25;46.83;;;;;;;2.93;100.00;99341.98;1738400;81;21630;-69
2020/12/31 02:05:17;;;;;;;133.72;48.55;;;;;;;2.85;100.00;99356.95;1737467;81;21736;-70
2020/12/31 02:07:44;;;;;;;99.77;43.53;;;;;;;2.79;100.00;99363.49;1739189;81;20954;-70
2020/12/31 02:10:10;;;;;;;103.70;41.28;;;;;;;2.75;100.00;99359.50;1695829;81;21171;-71
2020/12/31 02:12:35;;;;;;;124.60;42.45;;;;;;;2.65;100.00;99357.28;1742396;81;26746;-69
2020/12/31 02:15:01;;;;;;;90.17;42.93;;;;;;;2.56;100.00;99360.15;1718199;81;21338;-69
2020/12/31 02:17:27;;;;;;;96.17;42.55;;;;;;;2.70;100.00;99356.42;1741437;81;21009;-70
2020/12/31 02:19:53;;;;;;;96.43;42.83;;;;;;;2.73;100.00;99347.53;1740870;81;20927;-70
2020/12/31 02:22:18;;;;;;;92.33;40.12;;;;;;;2.78;100.00;99350.12;1740478;81;26910;-70
2020/12/31 02:24:44;;;;;;;89.97;40.35;;;;;;;2.79;100.00;99353.06;1735126;81;27006;-69
2020/12/31 02:27:10;;;;;;;83.60;38.90;;;;;;;2.76;99.67;99356.41;1738467;81;21387;-69
2020/12/31 02:29:36;;;;;;;89.47;39.90;;;;;;;2.83;99.19;99364.91;1738222;81;24330;-69
2020/12/31 02:32:01;;;;;;;84.73;39.57;;;;;;;2.83;98.83;99375.34;1738742;81;21034;-69
2020/12/31 02:34:27;;;;;;;90.40;40.90;;;;;;;2.87;98.83;99370.23;1739275;81;28249;-69
2020/12/31 02:36:53;;;;;;;91.77;40.70;;;;;;;2.92;98.81;99372.91;1739423;81;26174;-69
2020/12/31 02:39:19;;;;;;;93.20;41.70;;;;;;;2.90;99.02;99368.31;1739066;81;22314;-69
2020/12/31 02:41:44;;;;;;;92.83;40.90;;;;;;;2.87;99.49;99369.38;1739373;81;26274;-69
2020/12/31 02:44:10;;;;;;;96.43;41.40;;;;;;;2.91;99.73;99369.98;1735175;81;20963;-69
2020/12/31 02:46:36;;;;;;;101.12;40.63;;;;;;;2.90;99.65;99364.41;1740303;81;27076;-68
2020/12/31 02:49:02;;;;;;;96.53;41.50;;;;;;;2.94;99.64;99361.91;1745351;81;25275;-69
2020/12/31 02:51:28;;;;;;;124.27;39.98;;;;;;;2.91;99.86;99365.58;1738069;81;21617;-69
2020/12/31 02:53:54;;;;;;;119.15;42.15;;;;;;;2.77;99.62;99373.72;1737343;81;25276;-69
2020/12/31 02:56:21;;;;;;;116.97;41.27;;;;;;;2.66;100.00;99377.20;1734572;81;23753;-69
2020/12/31 02:58:47;;;;;;;;;;;;;;;2.73;100.00;99375.72;1719715;81;21132;-69
2020/12/31 03:01:14;;;;;;;118.95;35.73;;;;;;;2.49;99.90;99382.47;1740144;81;20465;-69
2020/12/31 03:03:40;;;;;;;88.03;35.90;;;;;;;2.40;100.00;99382.72;1741286;81;21997;-68
2020/12/31 03:06:06;;;;;;;89.17;37.20;;;;;;;2.44;100.00;99382.83;1735359;81;22363;-69
2020/12/31 03:08:33;;;;;;;82.20;34.87;;;;;;;2.45;100.00;99380.56;1723122;81;21036;-69
2020/12/31 03:10:59;;;;;;;86.63;36.00;;;;;;;2.57;100.00;99389.18;1734348;81;27943;-69
2020/12/31 03:13:25;;;;;;;94.17;34.65;;;;;;;2.51;100.00;99385.28;1736159;81;27410;-69
2020/12/31 03:15:53;;;;;;;106.97;36.73;;;;;;;2.53;100.00;99388.25;1745797;81;21248;-69
2020/12/31 03:18:19;;;;;;;105.03;36.63;;;;;;;2.50;100.00;99385.40;1741097;81;21542;-69
2020/12/31 03:20:52;;;;;;;98.50;40.27;;;;;;;2.49;100.00;99394.19;1744126;81;20983;-69
2020/12/31 03:23:18;;;;;;;114.80;38.90;;;;;;;2.54;100.00;99393.82;1747755;81;21196;-69
2020/12/31 03:25:44;;;;;;;96.25;39.73;;;;;;;2.58;100.00;99390.00;1722458;82;21797;-69
2020/12/31 03:28:10;;;;;;;101.50;40.37;;;;;;;2.66;100.00;99392.83;1728082;82;22008;-69
2020/12/31 03:30:36;;;;;;;90.53;37.50;;;;;;;2.73;100.00;99397.88;1732862;81;25218;-69
2020/12/31 03:33:02;;;;;;;93.47;37.03;;;;;;;2.72;100.00;99401.92;1725138;82;21189;-69
2020/12/31 03:35:28;;;;;;;87.82;36.88;;;;;;;2.76;100.00;99398.94;1739849;81;21596;-69
2020/12/31 03:37:54;;;;;;;97.10;37.20;;;;;;;2.75;100.00;99402.52;1725533;82;27686;-69
2020/12/31 03:40:20;;;;;;;82.23;35.50;;;;;;;2.76;99.79;99408.06;1726983;81;21958;-69
2020/12/31 03:42:45;;;;;;;79.20;35.28;;;;;;;2.83;99.83;99405.32;1726680;82;21133;-69
2020/12/31 03:45:11;;;;;;;86.53;38.47;;;;;;;2.91;99.45;99403.88;1737248;81;20960;-69
2020/12/31 03:47:37;;;;;;;83.85;36.77;;;;;;;2.98;99.33;99407.63;1725869;81;26850;-70
2020/12/31 03:50:06;;;;;;;73.50;34.88;;;;;;;3.01;98.85;99407.37;1759951;80;26538;-69
2020/12/31 03:52:32;;;;;;;76.62;36.15;;;;;;;3.06;98.66;99410.41;1761309;80;21314;-69
2020/12/31 03:54:58;;;;;;;73.57;36.45;;;;;;;3.04;98.11;99413.15;1762016;80;21112;-69
2020/12/31 03:57:24;;;;;;;67.40;32.67;;;;;;;3.15;98.01;99416.18;1756983;80;20932;-69
2020/12/31 03:59:49;;;;;;;66.82;32.10;;;;;;;3.16;97.03;99413.94;1756677;80;27025;-69
2020/12/31 04:02:15;;;;;;;58.90;30.08;;;;;;;3.12;96.62;99416.92;1754375;80;26000;-69
2020/12/31 04:04:41;;;;;;;62.10;29.27;;;;;;;3.05;95.75;99421.83;1760070;80;21368;-69
2020/12/31 04:07:06;;;;;;;52.87;26.77;;;;;;;3.01;95.92;99421.71;1758380;80;24336;-68
2020/12/31 04:09:32;;;;;;;68.10;30.07;;;;;;;3.02;95.69;99420.28;1760984;80;21552;-69
2020/12/31 04:11:59;;;;;;;57.57;28.13;;;;;;;3.04;95.48;99416.25;1754571;80;29209;-68
2020/12/31 04:14:25;;;;;;;64.75;26.25;;;;;;;3.09;95.65;99424.52;1720862;82;21142;-69
2020/12/31 04:16:51;;;;;;;58.28;30.43;;;;;;;3.09;95.58;99425.81;1723814;82;21218;-69
2020/12/31 04:19:17;;;;;;;71.40;29.97;;;;;;;3.13;95.74;99424.63;1728531;81;23340;-69
2020/12/31 04:21:42;;;;;;;68.35;32.05;;;;;;;3.15;95.32;99421.40;1721777;82;21567;-69
2020/12/31 04:24:08;;;;;;;65.62;31.45;;;;;;;3.24;95.67;99428.47;1741461;81;26992;-68
2020/12/31 04:26:34;;;;;;;71.35;30.75;;;;;;;3.32;95.57;99426.53;1736720;81;26398;-68
2020/12/31 04:29:00;;;;;;;66.60;31.77;;;;;;;3.32;94.97;99429.14;1739829;81;21698;-68
2020/12/31 04:31:25;;;;;;;73.47;30.90;;;;;;;3.28;94.92;99429.52;1738498;81;21369;-69
2020/12/31 04:33:51;;;;;;;73.53;32.53;;;;;;;3.13;95.23;99435.05;1737023;81;20971;-68
2020/12/31 04:36:17;;;;;;;67.58;32.85;;;;;;;3.07;95.92;99440.77;1738406;81;28441;-69
2020/12/31 04:38:43;;;;;;;75.45;32.17;;;;;;;3.04;96.30;99448.84;1736994;81;21213;-70
2020/12/31 04:41:12;;;;;;;73.00;33.10;;;;;;;3.05;96.40;99453.94;1740599;81;21637;-69
2020/12/31 04:43:38;;;;;;;75.32;33.08;;;;;;;3.02;96.38;99442.94;1717314;81;21152;-69
2020/12/31 04:46:06;;;;;;;74.43;33.73;;;;;;;3.20;96.42;99470.14;1744884;81;21644;-69
2020/12/31 04:48:40;;;;;;;78.78;35.08;;;;;;;3.24;96.14;99471.52;1741531;81;21211;-68
2020/12/31 04:51:08;;;;;;;71.80;34.03;;;;;;;3.27;95.78;99476.16;1746966;81;21248;-69
2020/12/31 04:53:34;;;;;;;68.17;29.87;;;;;;;3.36;95.65;99484.53;1739191;81;22307;-69
2020/12/31 04:56:01;;;;;;;68.57;33.67;;;;;;;3.30;95.14;99491.56;1736668;81;25374;-69
2020/12/31 04:58:27;;;;;;;68.60;32.05;;;;;;;3.37;95.34;99494.84;1740290;81;21580;-69
2020/12/31 05:00:52;;;;;;;68.50;32.60;;;;;;;3.40;94.89;99489.38;1718161;81;28828;-68
2020/12/31 05:03:18;;;;;;;73.80;33.67;;;;;;;3.36;94.66;99485.35;1743365;81;27159;-68
2020/12/31 05:05:44;;;;;;;73.87;35.73;;;;;;;3.35;94.63;99494.61;1743442;81;22114;-69
2020/12/31 05:08:10;;;;;;;69.82;31.42;;;;;;;3.38;94.92;99497.79;1738442;81;21187;-69
2020/12/31 05:10:36;;;;;;;73.03;33.87;;;;;;;3.39;94.87;99494.23;1737668;81;20955;-71
2020/12/31 05:13:07;;;;;;;71.28;32.33;;;;;;;3.40;94.72;99495.05;1741101;81;28475;-69
2020/12/31 05:15:38;;;;;;;69.15;32.05;;;;;;;3.20;94.51;99493.61;1740805;81;21124;-69
2020/12/31 05:18:27;;;;;;;70.08;31.60;;;;;;;3.13;94.79;99495.06;1733644;81;21862;-69
2020/12/31 05:20:58;;;;;;;67.12;31.48;;;;;;;3.20;95.27;99495.38;1735727;81;21152;-68
2020/12/31 05:23:27;;;;;;;69.35;32.85;;;;;;;3.13;95.27;99506.80;1740118;81;21192;-69
2020/12/31 05:25:53;;;;;;;69.45;31.57;;;;;;;3.23;95.38;99507.72;1710637;83;21546;-69
2020/12/31 05:28:33;;;;;;;67.53;31.07;;;;;;;3.34;95.28;99511.21;1714366;83;26673;-69
2020/12/31 05:31:07;;;;;;;67.10;31.35;;;;;;;3.35;94.90;99499.83;1736928;80;22725;-69
2020/12/31 05:33:39;;;;;;;73.62;31.75;;;;;;;3.36;94.57;99493.67;1719687;83;21165;-69
2020/12/31 05:36:21;;;;;;;67.10;30.20;;;;;;;3.29;94.38;99496.42;1710210;81;21173;-69
2020/12/31 05:39:02;;;;;;;59.95;29.35;;;;;;;3.23;94.30;99499.89;1706211;83;21192;-69
2020/12/31 05:41:35;;;;;;;59.30;29.82;;;;;;;3.25;94.63;99502.38;1720610;81;21176;-69
2020/12/31 05:44:06;;;;;;;65.60;30.45;;;;;;;3.31;94.41;99508.86;1729184;82;21187;-69
2020/12/31 05:46:34;;;;;;;61.33;27.62;;;;;;;3.34;94.23;99515.13;1701591;82;21573;-68
2020/12/31 05:49:05;;;;;;;63.28;29.67;;;;;;;3.21;93.61;99521.34;1721974;82;21204;-69
2020/12/31 05:51:35;;;;;;;64.05;29.37;;;;;;;3.26;94.41;99516.23;1723306;81;21223;-69
2020/12/31 05:54:12;;;;;;;60.40;28.32;;;;;;;3.22;94.35;99523.01;1727759;82;21582;-68
2020/12/31 05:56:40;;;;;;;58.85;27.45;;;;;;;3.17;94.72;99520.41;1707630;83;26776;-69
2020/12/31 05:59:23;;;;;;;59.08;27.22;;;;;;;3.07;94.96;99519.03;1711277;83;21567;-68
2020/12/31 06:01:59;;;;;;;55.20;25.57;;;;;;;3.05;94.97;99523.55;1733380;81;21573;-69
2020/12/31 06:04:47;;;;;;;56.00;25.60;;;;;;;3.15;94.98;99527.06;1706759;83;21782;-70
2020/12/31 06:07:32;;;;;;;55.48;26.35;;;;;;;3.24;94.53;99531.53;1734755;81;21162;-69
2020/12/31 06:10:05;;;;;;;49.88;25.50;;;;;;;3.31;94.02;99533.64;1706964;83;21638;-69
2020/12/31 06:12:39;;;;;;;53.98;25.77;;;;;;;3.36;93.69;99532.33;1721504;82;21178;-69
2020/12/31 06:15:08;;;;;;;50.85;25.50;;;;;;;3.35;93.13;99536.37;1736187;81;21176;-69
2020/12/31 06:17:39;;;;;;;48.48;24.47;;;;;;;3.39;93.08;99530.77;1738197;81;21203;-70
2020/12/31 06:20:05;;;;;;;53.78;22.98;;;;;;;3.36;92.58;99532.33;1741017;80;21656;-69
2020/12/31 06:22:34;;;;;;;54.33;24.97;;;;;;;3.29;92.16;99538.17;1753564;80;22290;-69
2020/12/31 06:25:00;;;;;;;51.58;25.12;;;;;;;3.30;92.44;99535.92;1751399;80;21173;-68
2020/12/31 06:27:31;;;;;;;53.60;25.47;;;;;;;3.32;92.47;99546.56;1750944;80;21754;-69
2020/12/31 06:29:57;;;;;;;59.50;22.32;;;;;;;3.35;92.50;99547.62;1746203;80;21755;-68
2020/12/31 06:32:36;;;;;;;51.13;22.95;;;;;;;3.21;91.59;99543.52;1684871;80;25637;-69
2020/12/31 06:35:09;;;;;;;46.63;21.15;;;;;;;3.11;91.87;99551.75;1797500;78;21554;-70
2020/12/31 06:37:35;;;;;;;49.93;22.45;;;;;;;3.07;91.57;99552.94;1790139;78;21204;-71
2020/12/31 06:40:24;;;;;;;44.97;20.73;;;;;;;2.95;92.18;99556.52;1789999;78;21772;-70
2020/12/31 06:43:03;;;;;;;47.10;22.82;;;;;;;2.96;92.06;99550.37;1792624;78;21245;-70
2020/12/31 06:45:48;;;;;;;48.78;21.82;;;;;;;3.05;92.27;99552.25;1792333;78;21654;-68
2020/12/31 06:48:31;;;;;;;50.15;24.52;;;;;;;3.00;92.11;99557.01;1788045;78;23488;-69
2020/12/31 06:51:09;;;;;;;51.83;21.87;;;;;;;2.98;92.41;99554.52;1791116;78;21194;-70
2020/12/31 06:53:48;;;;;;;;;;;;;;;3.02;92.01;99545.97;1758214;79;21219;-71
2020/12/31 06:56:14;;;;;;;50.65;21.55;;;;;;;2.96;91.67;99547.76;1787517;78;20418;-70
2020/12/31 06:58:41;;;;;;;50.20;19.77;;;;;;;2.77;92.22;99549.22;1788549;78;25252;-70
2020/12/31 07:01:30;;;;;;;53.80;22.58;;;;;;;2.86;92.51;99547.67;1789537;78;27226;-71
2020/12/31 07:03:57;;;;;;;47.53;21.05;;;;;;;2.90;92.39;99550.86;1791582;78;21180;-71
2020/12/31 07:06:27;;;;;;;53.95;22.00;;;;;;;2.95;92.34;99549.55;1790862;78;21212;-71
2020/12/31 07:09:03;;;;;;;55.78;23.65;;;;;;;2.99;92.00;99548.34;1794768;78;21144;-70
2020/12/31 07:11:31;;;;;;;48.75;22.13;;;;;;;3.02;91.75;99548.58;1787711;78;22048;-70
2020/12/31 07:13:56;;;;;;;;;;;;;;;3.01;91.47;99546.91;1790459;78;21338;-70
2020/12/31 07:16:40;;;;;;;45.78;20.10;;;;;;;2.80;91.03;99543.76;1789237;78;20782;-72
2020/12/31 07:19:07;;;;;;;55.10;22.55;;;;;;;2.61;91.61;99546.14;1787326;78;21211;-72
2020/12/31 07:21:35;;;;;;;51.33;20.90;;;;;;;2.46;92.17;99542.48;1791460;78;21629;-71
2020/12/31 07:24:24;;;;;;;49.98;22.73;;;;;;;2.50;92.70;99540.02;1787485;78;22249;-70
2020/12/31 07:26:52;;;;;;;56.00;21.57;;;;;;;2.55;92.98;99542.26;1793628;78;21251;-71
2020/12/31 07:29:30;;;;;;;51.68;21.77;;;;;;;2.70;93.14;99548.03;1785700;78;21183;-71
2020/12/31 07:31:56;;;;;;;;;;;;;;;2.77;92.39;99551.83;1798655;78;21112;-70
2020/12/31 07:34:26;;;;;;;51.92;20.95;;;;;;;2.76;92.00;99542.33;1788910;78;20324;-70
2020/12/31 07:37:04;;;;;;;53.55;22.17;;;;;;;2.79;91.94;99538.18;1787936;78;21217;-70
2020/12/31 07:39:31;;;;;;;64.45;22.98;;;;;;;2.84;92.07;99541.73;1790724;78;21232;-70
2020/12/31 07:42:17;;;;;;;52.33;22.35;;;;;;;2.56;91.80;99551.72;1788281;78;21130;-71
2020/12/31 07:44:54;;;;;;;48.75;21.48;;;;;;;2.43;92.70;99558.84;1786283;78;21218;-70
2020/12/31 07:47:23;;;;;;;106.55;19.35;;;;;;;2.48;92.97;99562.73;1787662;78;24817;-69
2020/12/31 07:49:51;;;;;;;61.48;21.05;;;;;;;2.36;92.58;99559.77;1787180;78;21211;-73
2020/12/31 07:52:17;;;;;;;57.48;22.22;;;;;;;2.28;93.29;99559.05;1789544;78;21231;-71
2020/12/31 07:54:43;;;;;;;45.40;19.10;;;;;;;2.14;93.50;99554.93;1789421;78;21338;-73
2020/12/31 07:57:11;;;;;;;49.13;21.30;;;;;;;2.13;93.77;99560.25;1788269;78;21639;-72
2020/12/31 07:59:46;;;;;;;46.15;20.00;;;;;;;2.20;94.14;99544.98;1783218;78;22179;-73
2020/12/31 08:02:15;;;;;;;47.45;20.60;;;;;;;2.33;93.96;99545.67;1790770;78;21188;-70
2020/12/31 08:04:40;;;;;;;45.70;19.50;;;;;;;2.43;93.43;99546.63;1786997;78;21955;-72
2020/12/31 08:07:16;;;;;;;43.87;20.40;;;;;;;2.37;92.91;99544.50;1788419;78;22359;-72
2020/12/31 08:09:42;;;;;;;47.27;19.98;;;;;;;2.48;93.23;99544.48;1790914;78;21197;-72
2020/12/31 08:12:10;;;;;;;42.53;19.30;;;;;;;2.56;92.84;99546.98;1788169;78;21168;-73
2020/12/31 08:14:46;;;;;;;57.53;21.97;;;;;;;2.64;92.49;99557.63;1788205;78;21708;-73
2020/12/31 08:17:13;;;;;;;48.50;20.48;;;;;;;2.32;92.20;99562.28;1789126;78;21220;-71
2020/12/31 08:19:40;;;;;;;43.73;20.02;;;;;;;2.35;92.94;99559.44;1788483;78;21217;-74
2020/12/31 08:22:21;;;;;;;45.23;19.57;;;;;;;2.40;92.63;99559.90;1792518;78;21601;-77
2020/12/31 08:24:51;;;;;;;40.98;19.00;;;;;;;2.26;92.39;99560.14;1770007;78;22381;-70
2020/12/31 08:27:19;;;;;;;44.65;20.32;;;;;;;2.37;93.02;99565.34;1786617;78;21185;-72
2020/12/31 08:29:45;;;;;;;;;;;;;;;2.49;92.95;99574.83;1790881;78;21139;-72
2020/12/31 08:32:11;;;;;;;35.85;16.32;;;;;;;2.55;92.29;99581.80;1787920;78;20249;-73
2020/12/31 08:34:37;;;;;;;42.70;17.97;;;;;;;2.61;91.77;99582.64;1789610;78;21105;-73
2020/12/31 08:37:04;;;;;;;37.67;18.27;;;;;;;2.66;91.58;99576.13;1790729;78;21045;-76
2020/12/31 08:39:30;;;;;;;35.30;16.23;;;;;;;2.60;90.77;99583.61;1785891;78;21188;-74
2020/12/31 08:41:59;;;;;;;39.37;17.83;;;;;;;2.54;91.15;99584.08;1789578;78;21795;-72
2020/12/31 08:44:26;;;;;;;35.23;17.50;;;;;;;2.46;91.50;99580.27;1792849;78;21593;-73
2020/12/31 08:46:52;;;;;;;38.88;18.00;;;;;;;2.55;91.91;99589.63;1795050;78;21152;-72
2020/12/31 08:49:25;;;;;;;44.80;18.70;;;;;;;2.35;92.06;99588.09;1788472;78;21145;-71
2020/12/31 08:51:51;;;;;;;44.53;19.65;;;;;;;2.40;91.93;99576.84;1787635;78;21170;-71
2020/12/31 08:54:17;;;;;;;44.53;17.82;;;;;;;2.40;92.04;99579.44;1792718;78;21231;-74
2020/12/31 08:56:43;;;;;;;41.40;19.50;;;;;;;2.43;91.72;99580.52;1787516;78;24244;-74
2020/12/31 08:59:15;;;;;;;42.47;20.00;;;;;;;2.43;92.06;99581.81;1786923;78;20981;-73
2020/12/31 09:01:44;;;;;;;50.80;21.05;;;;;;;2.44;92.08;99586.55;1790293;78;21221;-72
2020/12/31 09:04:19;;;;;;;45.88;19.42;;;;;;;2.17;92.65;99594.70;1786892;78;21188;-78
2020/12/31 09:06:47;;;;;;;39.95;18.77;;;;;;;2.12;93.17;99595.87;1772062;79;23359;-75
2020/12/31 09:09:25;;;;;;;58.52;19.75;;;;;;;1.97;93.73;99591.81;1792720;78;21692;-73
2020/12/31 09:12:08;;;;;;;47.17;20.97;;;;;;;1.98;93.82;99595.60;1787669;78;21173;-75
2020/12/31 09:14:32;;;;;;;42.65;18.73;;;;;;;2.06;93.86;99602.84;1786317;78;21198;-73
2020/12/31 09:16:58;;;;;;;46.68;19.57;;;;;;;2.20;93.95;99603.59;1785858;78;21180;-74
2020/12/31 09:19:24;;;;;;;44.10;19.37;;;;;;;2.29;93.78;99601.59;1785810;78;21014;-74
2020/12/31 09:21:50;;;;;;;47.30;19.05;;;;;;;2.37;93.36;99591.41;1788195;78;21639;-72
2020/12/31 09:24:23;;;;;;;45.63;19.62;;;;;;;2.32;93.19;99595.66;1789397;78;21197;-73
2020/12/31 09:26:56;;;;;;;46.35;20.68;;;;;;;2.48;93.60;99599.22;1790892;78;21178;-73
2020/12/31 09:29:23;;;;;;;47.83;20.55;;;;;;;2.57;93.30;99602.09;1788039;78;21172;-71
2020/12/31 09:31:48;;;;;;;49.95;20.52;;;;;;;2.58;93.21;99601.12;1788075;78;21245;-74
2020/12/31 09:34:15;;;;;;;45.53;20.43;;;;;;;2.54;92.95;99599.72;1789191;78;24520;-68
2020/12/31 09:36:40;;;;;;;46.37;19.77;;;;;;;2.37;92.80;99597.09;1784768;78;21117;-74
2020/12/31 09:39:06;;;;;;;45.90;19.65;;;;;;;2.48;93.24;99596.61;1784918;78;26784;-70
2020/12/31 09:41:32;;;;;;;46.50;19.73;;;;;;;2.59;93.09;99597.58;1792375;78;27198;-76
2020/12/31 09:43:58;;;;;;;51.40;21.20;;;;;;;2.62;92.71;99594.73;1791727;78;21472;-74
2020/12/31 09:46:23;;;;;;;48.30;20.37;;;;;;;2.62;92.72;99594.73;1789256;78;23708;-73
2020/12/31 09:48:49;;;;;;;52.27;22.80;;;;;;;2.75;92.66;99595.45;1787261;78;20989;-74
2020/12/31 09:51:21;;;;;;;54.00;20.85;;;;;;;2.67;92.22;99592.59;1788009;78;21176;-73
2020/12/31 09:53:50;;;;;;;53.35;22.05;;;;;;;2.75;92.49;99585.02;1787089;78;21197;-73
2020/12/31 09:56:17;;;;;;;51.60;23.55;;;;;;;2.77;92.35;99594.84;1785539;78;21998;-73
2020/12/31 09:58:43;;;;;;;54.45;20.77;;;;;;;2.85;92.42;99588.55;1793245;78;21209;-72
2020/12/31 10:01:09;;;;;;;45.60;20.47;;;;;;;2.93;92.46;99592.34;1787740;78;21026;-72
2020/12/31 10:03:35;;;;;;;50.97;22.43;;;;;;;2.96;92.18;99596.01;1789197;78;27736;-71
2020/12/31 10:06:01;;;;;;;50.25;22.65;;;;;;;3.06;92.15;99590.41;1788160;78;21609;-73
2020/12/31 10:08:28;;;;;;;50.90;22.90;;;;;;;3.16;91.73;99599.16;1786957;78;21940;-67
2020/12/31 10:10:54;;;;;;;52.93;21.17;;;;;;;3.18;91.73;99599.86;1788092;78;21217;-72
2020/12/31 10:13:20;;;;;;;53.13;23.50;;;;;;;3.24;91.80;99607.20;1787773;78;23806;-72
2020/12/31 10:15:45;;;;;;;53.92;22.45;;;;;;;3.34;91.74;99603.86;1785795;78;28554;-73
2020/12/31 10:18:11;;;;;;;49.93;22.32;;;;;;;3.36;91.44;99604.58;1789497;78;26718;-75
2020/12/31 10:20:37;;;;;;;54.07;23.53;;;;;;;3.36;91.11;99606.70;1757663;78;22292;-76
2020/12/31 10:23:04;;;;;;;60.53;25.30;;;;;;;3.36;91.33;99596.75;1788648;78;25182;-75
2020/12/31 10:25:29;;;;;;;53.05;23.12;;;;;;;3.16;91.41;99593.95;1786865;78;21866;-72
2020/12/31 10:27:55;;;;;;;56.68;25.55;;;;;;;3.28;91.79;99594.76;1788338;78;28555;-70
2020/12/31 10:30:21;;;;;;;59.42;23.22;;;;;;;3.32;91.53;99597.94;1786665;78;26767;-70
2020/12/31 10:32:47;;;;;;;51.40;24.30;;;;;;;3.37;91.41;99590.56;1786922;78;21771;-71
2020/12/31 10:35:12;;;;;;;58.20;23.90;;;;;;;3.46;91.33;99592.43;1785543;78;26108;-73
2020/12/31 10:37:38;;;;;;;56.53;25.93;;;;;;;3.48;91.07;99593.16;1792324;78;20938;-71
2020/12/31 10:40:04;;;;;;;59.75;23.47;;;;;;;3.55;91.00;99587.77;1789907;78;28410;-73
2020/12/31 10:42:30;;;;;;;56.92;26.27;;;;;;;3.63;90.99;99585.02;1788633;78;21204;-74
2020/12/31 10:44:56;;;;;;;62.17;27.33;;;;;;;3.57;90.45;99585.88;1789079;78;22256;-74
2020/12/31 10:47:22;;;;;;;59.15;27.77;;;;;;;3.58;90.48;99588.01;1785779;78;21221;-74
2020/12/31 10:49:48;;;;;;;62.87;25.73;;;;;;;3.60;90.63;99583.47;1788100;78;24744;-72
2020/12/31 10:52:13;;;;;;;58.25;27.55;;;;;;;3.63;90.72;99580.62;1784981;78;27875;-74
2020/12/31 10:54:39;;;;;;;67.60;27.67;;;;;;;3.71;90.72;99578.68;1792165;78;26634;-74
2020/12/31 10:57:05;;;;;;;64.22;27.00;;;;;;;3.78;90.45;99572.01;1792198;78;21448;-74
2020/12/31 10:59:31;;;;;;;63.10;28.83;;;;;;;3.73;90.43;99570.27;1790624;78;26255;-72
2020/12/31 11:01:56;;;;;;;62.10;27.37;;;;;;;3.71;90.64;99570.84;1784920;78;23973;-71
2020/12/31 11:04:22;;;;;;;66.90;28.50;;;;;;;3.72;90.86;99568.59;1788390;78;28450;-74
2020/12/31 11:06:48;;;;;;;60.10;28.50;;;;;;;3.82;90.79;99569.47;1787109;78;26688;-72
2020/12/31 11:09:14;;;;;;;56.05;29.02;;;;;;;3.85;90.57;99567.92;1788840;78;21721;-73
2020/12/31 11:11:41;;;;;;;60.75;27.77;;;;;;;3.82;90.10;99568.17;1788028;78;26839;-73
2020/12/31 11:14:07;;;;;;;62.23;29.37;;;;;;;3.87;89.68;99562.11;1787634;78;21193;-74
2020/12/31 11:16:33;;;;;;;56.20;30.15;;;;;;;3.83;89.44;99563.30;1786259;78;21213;-74
2020/12/31 11:18:59;;;;;;;57.65;30.40;;;;;;;3.86;89.60;99565.66;1757249;79;26874;-76
2020/12/31 11:21:24;;;;;;;59.98;29.42;;;;;;;3.82;89.67;99567.35;1786359;78;21170;-76
2020/12/31 11:23:50;;;;;;;54.10;30.03;;;;;;;3.88;89.76;99568.97;1789870;78;25172;-76
2020/12/31 11:26:17;;;;;;;66.10;30.53;;;;;;;3.95;89.71;99566.20;1788866;78;22705;-75